createdAt,value
2017-03-21T00:00:18.192Z,86
2017-03-21T00:01:18.962Z,87
2017-03-21T00:02:19.735Z,87
2017-03-21T00:03:20.501Z,87
2017-03-21T00:04:21.556Z,87
2017-03-21T00:05:22.321Z,87
2017-03-21T00:06:23.085Z,88
2017-03-21T00:07:23.852Z,88
2017-03-21T00:08:24.623Z,88
2017-03-21T00:09:25.641Z,88
2017-03-21T00:10:26.411Z,88
2017-03-21T00:11:27.176Z,88
2017-03-21T00:12:27.946Z,90
2017-03-21T00:13:28.710Z,90
2017-03-21T00:14:29.726Z,90
2017-03-21T00:15:30.496Z,91
2017-03-21T00:16:31.262Z,92
2017-03-21T00:17:32.028Z,93
2017-03-21T00:18:32.798Z,92
2017-03-21T00:19:33.815Z,93
2017-03-21T00:20:34.585Z,93
2017-03-21T00:21:35.352Z,93
2017-03-21T00:22:36.122Z,92
2017-03-21T00:23:36.889Z,92
2017-03-21T00:24:37.907Z,92
2017-03-21T00:25:38.675Z,93
2017-03-21T00:26:39.443Z,93
2017-03-21T00:27:40.211Z,94
2017-03-21T00:28:40.980Z,94
2017-03-21T00:29:41.996Z,94
2017-03-21T00:30:42.763Z,93
2017-03-21T00:31:43.529Z,94
2017-03-21T00:32:44.302Z,94
2017-03-21T00:33:45.069Z,94
2017-03-21T00:34:46.088Z,93
2017-03-21T00:35:46.853Z,94
2017-03-21T00:36:47.625Z,94
2017-03-21T00:37:48.391Z,94
2017-03-21T00:38:49.156Z,94
2017-03-21T00:39:50.174Z,94
2017-03-21T00:40:50.945Z,93
2017-03-21T00:41:51.712Z,94
2017-03-21T00:42:52.478Z,94
2017-03-21T00:43:53.248Z,94
2017-03-21T00:44:54.265Z,95
2017-03-21T00:45:55.030Z,95
2017-03-21T00:46:55.801Z,95
2017-03-21T00:47:56.570Z,95
2017-03-21T00:48:57.339Z,95
2017-03-21T00:49:58.358Z,94
2017-03-21T00:50:59.122Z,94
2017-03-21T00:51:59.890Z,94
2017-03-21T00:53:00.656Z,95
2017-03-21T00:54:01.422Z,94
2017-03-21T00:55:02.437Z,94
2017-03-21T00:56:03.205Z,94
2017-03-21T00:57:03.975Z,94
2017-03-21T00:58:04.744Z,94
2017-03-21T00:59:05.513Z,95
2017-03-21T01:00:06.526Z,93
2017-03-21T01:01:07.293Z,94
2017-03-21T01:02:08.063Z,94
2017-03-21T01:03:08.830Z,94
2017-03-21T01:04:09.598Z,94
2017-03-21T01:05:10.620Z,93
2017-03-21T01:06:11.388Z,93
2017-03-21T01:07:12.154Z,94
2017-03-21T01:08:12.919Z,93
2017-03-21T01:09:13.690Z,94
2017-03-21T01:10:14.704Z,92
2017-03-21T01:11:15.469Z,93
2017-03-21T01:12:16.239Z,93
2017-03-21T01:13:17.002Z,92
2017-03-21T01:14:17.776Z,93
2017-03-21T01:15:18.797Z,94
2017-03-21T01:16:19.565Z,93
2017-03-21T01:17:20.327Z,92
2017-03-21T01:18:21.097Z,92
2017-03-21T01:19:21.866Z,93
2017-03-21T01:20:22.881Z,93
2017-03-21T01:21:23.651Z,93
2017-03-21T01:22:24.420Z,94
2017-03-21T01:23:25.188Z,93
2017-03-21T01:24:25.958Z,94
2017-03-21T01:25:26.979Z,94
2017-03-21T01:26:27.744Z,93
2017-03-21T01:27:28.516Z,94
2017-03-21T01:28:29.284Z,93
2017-03-21T01:29:30.047Z,94
2017-03-21T01:30:31.064Z,93
2017-03-21T01:31:31.833Z,94
2017-03-21T01:32:32.597Z,93
2017-03-21T01:33:33.364Z,93
2017-03-21T01:34:34.132Z,93
2017-03-21T01:35:35.147Z,93
2017-03-21T01:36:35.917Z,93
2017-03-21T01:37:36.681Z,94
2017-03-21T01:38:37.449Z,93
2017-03-21T01:39:38.214Z,93
2017-03-21T01:40:39.236Z,93
2017-03-21T01:41:39.998Z,94
2017-03-21T01:42:40.774Z,93
2017-03-21T01:43:41.536Z,93
2017-03-21T01:44:42.303Z,94
2017-03-21T01:45:43.321Z,94
2017-03-21T01:46:44.089Z,93
2017-03-21T01:47:44.854Z,94
2017-03-21T01:48:45.620Z,93
2017-03-21T01:49:46.389Z,94
2017-03-21T01:50:47.407Z,94
2017-03-21T01:51:48.174Z,94
2017-03-21T01:52:48.942Z,93
2017-03-21T01:53:49.706Z,94
2017-03-21T01:54:50.475Z,93
2017-03-21T01:55:51.494Z,94
2017-03-21T01:56:52.258Z,94
2017-03-21T01:57:53.029Z,94
2017-03-21T01:58:53.799Z,94
2017-03-21T01:59:54.565Z,93
2017-03-21T02:00:55.582Z,94
2017-03-21T02:01:56.351Z,94
2017-03-21T02:02:57.118Z,94
2017-03-21T02:03:57.883Z,94
2017-03-21T02:04:58.654Z,94
2017-03-21T02:05:59.669Z,94
2017-03-21T02:07:00.436Z,94
2017-03-21T02:08:01.207Z,94
2017-03-21T02:09:01.972Z,94
2017-03-21T02:10:02.742Z,94
2017-03-21T02:11:03.757Z,93
2017-03-21T02:12:04.523Z,91
2017-03-21T02:13:05.289Z,90
2017-03-21T02:14:06.021Z,88
2017-03-21T02:15:06.785Z,87
2017-03-21T02:16:07.800Z,87
2017-03-21T02:17:08.567Z,86
2017-03-21T02:18:09.333Z,86
2017-03-21T02:19:10.099Z,85
2017-03-21T02:20:10.868Z,87
2017-03-21T02:21:11.883Z,87
2017-03-21T02:22:12.650Z,87
2017-03-21T02:23:13.419Z,87
2017-03-21T02:24:14.181Z,87
2017-03-21T02:25:14.945Z,88
2017-03-21T02:26:15.958Z,88
2017-03-21T02:27:16.724Z,88
2017-03-21T02:28:17.485Z,89
2017-03-21T02:29:18.253Z,89
2017-03-21T02:30:19.020Z,90
2017-03-21T02:31:20.040Z,89
2017-03-21T02:32:20.799Z,89
2017-03-21T02:33:21.564Z,90
2017-03-21T02:34:22.328Z,90
2017-03-21T02:35:23.099Z,90
2017-03-21T02:36:24.115Z,91
2017-03-21T02:37:24.883Z,90
2017-03-21T02:38:25.648Z,90
2017-03-21T02:39:26.414Z,90
2017-03-21T02:40:27.182Z,91
2017-03-21T02:41:28.251Z,91
2017-03-21T02:42:29.015Z,91
2017-03-21T02:43:29.784Z,91
2017-03-21T02:44:30.547Z,91
2017-03-21T02:45:31.308Z,91
2017-03-21T02:46:32.324Z,91
2017-03-21T02:47:33.093Z,91
2017-03-21T02:48:33.857Z,92
2017-03-21T02:49:34.631Z,92
2017-03-21T02:50:35.392Z,92
2017-03-21T02:51:36.411Z,92
2017-03-21T02:52:37.175Z,92
2017-03-21T02:53:37.947Z,93
2017-03-21T02:54:38.709Z,93
2017-03-21T02:55:39.473Z,93
2017-03-21T02:56:40.491Z,93
2017-03-21T02:57:41.261Z,93
2017-03-21T02:58:42.024Z,93
2017-03-21T02:59:42.790Z,93
2017-03-21T03:00:43.554Z,93
2017-03-21T03:01:44.571Z,93
2017-03-21T03:02:45.333Z,93
2017-03-21T03:03:46.098Z,93
2017-03-21T03:04:47.167Z,93
2017-03-21T03:05:47.932Z,93
2017-03-21T03:06:48.697Z,93
2017-03-21T03:07:49.468Z,93
2017-03-21T03:08:50.231Z,93
2017-03-21T03:09:51.302Z,94
2017-03-21T03:10:52.067Z,93
2017-03-21T03:11:52.836Z,93
2017-03-21T03:12:53.603Z,93
2017-03-21T03:13:54.372Z,93
2017-03-21T03:14:55.388Z,93
2017-03-21T03:15:56.156Z,93
2017-03-21T03:16:56.921Z,93
2017-03-21T03:17:57.685Z,93
2017-03-21T03:18:58.454Z,93
2017-03-21T03:19:59.472Z,92
2017-03-21T03:21:00.237Z,93
2017-03-21T03:22:01.003Z,93
2017-03-21T03:23:01.767Z,93
2017-03-21T03:24:02.540Z,93
2017-03-21T03:25:03.547Z,93
2017-03-21T03:26:04.316Z,94
2017-03-21T03:27:05.081Z,93
2017-03-21T03:28:05.854Z,93
2017-03-21T03:29:06.618Z,94
2017-03-21T03:30:07.634Z,94
2017-03-21T03:31:08.405Z,94
2017-03-21T03:32:09.169Z,94
2017-03-21T03:33:09.936Z,94
2017-03-21T03:34:10.705Z,94
2017-03-21T03:35:11.726Z,94
2017-03-21T03:36:12.492Z,94
2017-03-21T03:37:13.446Z,94
2017-03-21T03:38:14.216Z,94
2017-03-21T03:39:14.985Z,94
2017-03-21T03:40:16.000Z,95
2017-03-21T03:41:16.777Z,94
2017-03-21T03:42:17.538Z,94
2017-03-21T03:43:18.305Z,94
2017-03-21T03:44:19.071Z,94
2017-03-21T03:45:20.088Z,94
2017-03-21T03:46:20.855Z,94
2017-03-21T03:47:21.626Z,94
2017-03-21T03:48:22.394Z,94
2017-03-21T03:49:23.161Z,94
2017-03-21T03:50:24.178Z,93
2017-03-21T03:51:24.949Z,93
2017-03-21T03:52:25.714Z,93
2017-03-21T03:53:26.481Z,94
2017-03-21T03:54:27.248Z,94
2017-03-21T03:55:28.263Z,93
2017-03-21T03:56:29.031Z,94
2017-03-21T03:57:29.794Z,94
2017-03-21T03:58:30.564Z,93
2017-03-21T03:59:31.330Z,93
2017-03-21T04:00:32.349Z,94
2017-03-21T04:01:33.115Z,94
2017-03-21T04:02:33.885Z,94
2017-03-21T04:03:34.652Z,93
2017-03-21T04:04:35.422Z,94
2017-03-21T04:05:36.436Z,94
2017-03-21T04:06:37.205Z,93
2017-03-21T04:07:37.971Z,94
2017-03-21T04:08:38.742Z,94
2017-03-21T04:09:39.506Z,94
2017-03-21T04:10:40.526Z,94
2017-03-21T04:11:41.294Z,95
2017-03-21T04:12:42.061Z,94
2017-03-21T04:13:42.827Z,94
2017-03-21T04:14:43.597Z,94
2017-03-21T04:15:44.613Z,94
2017-03-21T04:16:45.381Z,93
2017-03-21T04:17:46.150Z,94
2017-03-21T04:18:46.924Z,94
2017-03-21T04:19:47.685Z,94
2017-03-21T04:20:48.705Z,95
2017-03-21T04:21:49.469Z,94
2017-03-21T04:22:50.234Z,94
2017-03-21T04:23:51.003Z,94
2017-03-21T04:24:51.774Z,94
2017-03-21T04:25:52.789Z,94
2017-03-21T04:26:53.554Z,93
2017-03-21T04:27:54.322Z,94
2017-03-21T04:28:55.090Z,94
2017-03-21T04:29:55.855Z,94
2017-03-21T04:30:56.872Z,95
2017-03-21T04:31:57.638Z,95
2017-03-21T04:32:58.404Z,95
2017-03-21T04:33:59.169Z,95
2017-03-21T04:34:59.939Z,94
2017-03-21T04:36:00.954Z,95
2017-03-21T04:37:01.725Z,95
2017-03-21T04:38:02.493Z,95
2017-03-21T04:39:03.259Z,95
2017-03-21T04:40:04.027Z,96
2017-03-21T04:41:05.042Z,95
2017-03-21T04:42:05.813Z,96
2017-03-21T04:43:06.581Z,96
2017-03-21T04:44:07.350Z,96
2017-03-21T04:45:08.116Z,97
2017-03-21T04:46:09.140Z,96
2017-03-21T04:47:09.910Z,96
2017-03-21T04:48:10.681Z,97
2017-03-21T04:49:11.452Z,96
2017-03-21T04:50:12.219Z,96
2017-03-21T04:51:13.237Z,96
2017-03-21T04:52:14.004Z,97
2017-03-21T04:53:14.776Z,97
2017-03-21T04:54:15.542Z,97
2017-03-21T04:55:16.313Z,97
2017-03-21T04:56:17.337Z,97
2017-03-21T04:57:18.104Z,97
2017-03-21T04:58:18.872Z,97
2017-03-21T04:59:19.641Z,97
2017-03-21T05:00:20.408Z,97
2017-03-21T05:01:21.427Z,97
2017-03-21T05:02:22.198Z,97
2017-03-21T05:03:22.967Z,97
2017-03-21T05:04:23.737Z,97
2017-03-21T05:05:24.508Z,97
2017-03-21T05:06:25.716Z,97
2017-03-21T05:07:26.488Z,97
2017-03-21T05:08:27.255Z,97
2017-03-21T05:09:28.025Z,97
2017-03-21T05:10:28.794Z,97
2017-03-21T05:11:29.816Z,97
2017-03-21T05:12:30.588Z,97
2017-03-21T05:13:31.356Z,97
2017-03-21T05:14:32.134Z,97
2017-03-21T05:15:32.892Z,98
2017-03-21T05:16:33.911Z,98
2017-03-21T05:17:34.687Z,98
2017-03-21T05:18:35.453Z,97
2017-03-21T05:19:36.225Z,97
2017-03-21T05:20:36.996Z,97
2017-03-21T05:21:38.014Z,97
2017-03-21T05:22:38.782Z,97
2017-03-21T05:23:39.553Z,97
2017-03-21T05:24:40.323Z,97
2017-03-21T05:25:41.277Z,97
2017-03-21T05:26:42.297Z,97
2017-03-21T05:27:43.068Z,97
2017-03-21T05:28:43.834Z,97
2017-03-21T05:29:44.610Z,97
2017-03-21T05:30:45.380Z,97
2017-03-21T05:31:46.402Z,97
2017-03-21T05:32:47.180Z,97
2017-03-21T05:33:47.950Z,97
2017-03-21T05:34:48.721Z,97
2017-03-21T05:35:49.492Z,97
2017-03-21T05:36:50.520Z,96
2017-03-21T05:37:51.285Z,97
2017-03-21T05:38:52.060Z,97
2017-03-21T05:39:52.829Z,97
2017-03-21T05:40:53.598Z,96
2017-03-21T05:41:54.623Z,97
2017-03-21T05:42:55.393Z,96
2017-03-21T05:43:56.163Z,97
2017-03-21T05:44:56.937Z,96
2017-03-21T05:45:57.706Z,96
2017-03-21T05:46:58.725Z,97
2017-03-21T05:47:59.497Z,96
2017-03-21T05:49:00.266Z,97
2017-03-21T05:50:01.037Z,97
2017-03-21T05:51:01.811Z,97
2017-03-21T05:52:02.835Z,97
2017-03-21T05:53:03.606Z,97
2017-03-21T05:54:04.380Z,97
2017-03-21T05:55:05.150Z,97
2017-03-21T05:56:05.923Z,97
2017-03-21T05:57:06.942Z,97
2017-03-21T05:58:07.716Z,97
2017-03-21T05:59:08.488Z,97
2017-03-21T06:00:09.261Z,97
2017-03-21T06:01:10.032Z,97
2017-03-21T06:02:11.055Z,97
2017-03-21T06:03:11.833Z,96
2017-03-21T06:04:12.606Z,97
2017-03-21T06:05:13.380Z,97
2017-03-21T06:06:14.153Z,97
2017-03-21T06:07:15.227Z,97
2017-03-21T06:08:16.000Z,97
2017-03-21T06:09:16.773Z,97
2017-03-21T06:10:17.546Z,97
2017-03-21T06:11:18.321Z,97
2017-03-21T06:12:19.345Z,96
2017-03-21T06:13:20.122Z,96
2017-03-21T06:14:20.895Z,96
2017-03-21T06:15:21.671Z,96
2017-03-21T06:16:22.439Z,96
2017-03-21T06:17:23.466Z,95
2017-03-21T06:18:24.242Z,95
2017-03-21T06:19:25.013Z,94
2017-03-21T06:20:25.789Z,94
2017-03-21T06:21:26.567Z,94
2017-03-21T06:22:27.590Z,94
2017-03-21T06:23:28.368Z,93
2017-03-21T06:24:29.139Z,93
2017-03-21T06:25:29.912Z,93
2017-03-21T06:26:30.687Z,93
2017-03-21T06:27:31.761Z,92
2017-03-21T06:28:32.576Z,93
2017-03-21T06:29:33.314Z,93
2017-03-21T06:30:34.092Z,93
2017-03-21T06:31:34.873Z,93
2017-03-21T06:32:35.893Z,93
2017-03-21T06:33:36.668Z,93
2017-03-21T06:34:37.447Z,92
2017-03-21T06:35:38.221Z,92
2017-03-21T06:36:38.998Z,92
2017-03-21T06:37:40.028Z,92
2017-03-21T06:38:40.806Z,93
2017-03-21T06:39:41.581Z,92
2017-03-21T06:40:42.359Z,92
2017-03-21T06:41:43.134Z,93
2017-03-21T06:42:44.166Z,92
2017-03-21T06:43:44.940Z,93
2017-03-21T06:44:45.714Z,91
2017-03-21T06:45:46.488Z,91
2017-03-21T06:46:47.268Z,92
2017-03-21T06:47:48.292Z,91
2017-03-21T06:48:49.066Z,91
2017-03-21T06:49:49.846Z,92
2017-03-21T06:50:50.623Z,92
2017-03-21T06:51:51.402Z,92
2017-03-21T06:52:52.430Z,92
2017-03-21T06:53:53.208Z,91
2017-03-21T06:54:53.983Z,91
2017-03-21T06:55:54.759Z,91
2017-03-21T06:56:55.531Z,91
2017-03-21T06:57:56.554Z,90
2017-03-21T06:58:57.332Z,91
2017-03-21T06:59:58.109Z,91
2017-03-21T07:00:59.077Z,91
2017-03-21T07:01:59.854Z,91
2017-03-21T07:03:00.882Z,91
2017-03-21T07:04:01.659Z,91
2017-03-21T07:05:02.437Z,92
2017-03-21T07:06:03.211Z,91
2017-03-21T07:07:03.985Z,91
2017-03-21T07:08:05.065Z,90
2017-03-21T07:09:05.844Z,90
2017-03-21T07:10:06.619Z,90
2017-03-21T07:11:07.391Z,90
2017-03-21T07:12:08.167Z,91
2017-03-21T07:13:09.193Z,91
2017-03-21T07:14:09.971Z,90
2017-03-21T07:15:10.744Z,90
2017-03-21T07:16:11.525Z,90
2017-03-21T07:17:12.300Z,90
2017-03-21T07:18:13.331Z,88
2017-03-21T07:19:14.104Z,90
2017-03-21T07:20:14.886Z,88
2017-03-21T07:21:15.668Z,88
2017-03-21T07:22:16.439Z,87
2017-03-21T07:23:17.470Z,87
2017-03-21T07:24:18.249Z,87
2017-03-21T07:25:19.025Z,86
2017-03-21T07:26:19.802Z,86
2017-03-21T07:27:20.579Z,85
2017-03-21T07:28:21.611Z,85
2017-03-21T07:29:22.386Z,85
2017-03-21T07:30:23.161Z,86
2017-03-21T07:31:23.940Z,85
2017-03-21T07:32:24.719Z,84
2017-03-21T07:33:25.745Z,84
2017-03-21T07:34:26.525Z,85
2017-03-21T07:35:27.306Z,84
2017-03-21T07:36:28.083Z,84
2017-03-21T07:37:28.864Z,83
2017-03-21T07:38:29.903Z,84
2017-03-21T07:39:30.673Z,83
2017-03-21T07:40:31.449Z,83
2017-03-21T07:41:32.232Z,83
2017-03-21T07:42:33.010Z,83
2017-03-21T07:43:34.040Z,83
2017-03-21T07:44:34.819Z,83
2017-03-21T07:45:35.598Z,83
2017-03-21T07:46:36.377Z,83
2017-03-21T07:47:37.159Z,83
2017-03-21T07:48:38.189Z,82
2017-03-21T07:49:38.965Z,82
2017-03-21T07:50:39.749Z,82
2017-03-21T07:51:40.528Z,82
2017-03-21T07:52:41.307Z,81
2017-03-21T07:53:42.389Z,82
2017-03-21T07:54:43.172Z,82
2017-03-21T07:55:43.949Z,81
2017-03-21T07:56:44.732Z,80
2017-03-21T07:57:45.511Z,80
2017-03-21T07:58:46.550Z,80
2017-03-21T07:59:47.319Z,79
2017-03-21T08:00:48.104Z,79
2017-03-21T08:01:48.883Z,79
2017-03-21T08:02:49.664Z,78
2017-03-21T08:03:50.695Z,79
2017-03-21T08:04:51.477Z,78
2017-03-21T08:05:52.255Z,79
2017-03-21T08:06:53.040Z,78
2017-03-21T08:07:53.819Z,79
2017-03-21T08:08:54.849Z,79
2017-03-21T08:09:55.628Z,78
2017-03-21T08:10:56.408Z,79
2017-03-21T08:11:57.192Z,78
2017-03-21T08:12:57.970Z,77
2017-03-21T08:13:59.006Z,77
2017-03-21T08:14:59.789Z,76
2017-03-21T08:16:00.574Z,75
2017-03-21T08:17:01.355Z,76
2017-03-21T08:18:02.139Z,76
2017-03-21T08:19:03.167Z,77
2017-03-21T08:20:03.950Z,75
2017-03-21T08:21:04.734Z,75
2017-03-21T08:22:05.517Z,75
2017-03-21T08:23:06.302Z,76
2017-03-21T08:24:07.386Z,76
2017-03-21T08:25:08.356Z,76
2017-03-21T08:26:09.137Z,76
2017-03-21T08:27:09.921Z,76
2017-03-21T08:28:10.704Z,76
2017-03-21T08:29:11.734Z,77
2017-03-21T08:30:12.512Z,76
2017-03-21T08:31:13.296Z,75
2017-03-21T08:32:14.041Z,75
2017-03-21T08:33:14.828Z,76
2017-03-21T08:34:15.861Z,76
2017-03-21T08:35:16.644Z,75
2017-03-21T08:36:17.428Z,75
2017-03-21T08:37:18.213Z,74
2017-03-21T08:38:18.997Z,75
2017-03-21T08:39:20.031Z,75
2017-03-21T08:40:20.816Z,72
2017-03-21T08:41:21.602Z,71
2017-03-21T08:42:22.383Z,72
2017-03-21T08:43:23.168Z,72
2017-03-21T08:44:24.209Z,71
2017-03-21T08:45:24.990Z,71
2017-03-21T08:46:25.777Z,71
2017-03-21T08:47:26.567Z,70
2017-03-21T08:48:27.352Z,69
2017-03-21T08:49:28.355Z,69
2017-03-21T08:50:29.139Z,68
2017-03-21T08:51:29.931Z,68
2017-03-21T08:52:30.718Z,67
2017-03-21T08:53:31.509Z,65
2017-03-21T08:54:32.544Z,65
2017-03-21T08:55:33.331Z,65
2017-03-21T08:56:34.121Z,66
2017-03-21T08:57:34.909Z,65
2017-03-21T08:58:35.695Z,65
2017-03-21T08:59:36.784Z,65
2017-03-21T09:00:37.571Z,64
2017-03-21T09:01:38.365Z,62
2017-03-21T09:02:39.155Z,63
2017-03-21T09:03:39.945Z,63
2017-03-21T09:04:40.985Z,63
2017-03-21T09:05:41.771Z,63
2017-03-21T09:06:42.563Z,63
2017-03-21T09:07:43.351Z,65
2017-03-21T09:08:44.135Z,64
2017-03-21T09:09:45.177Z,65
2017-03-21T09:10:45.959Z,66
2017-03-21T09:11:46.748Z,66
2017-03-21T09:12:47.537Z,67
2017-03-21T09:13:48.316Z,67
2017-03-21T09:14:49.354Z,65
2017-03-21T09:15:50.139Z,66
2017-03-21T09:16:50.927Z,67
2017-03-21T09:17:51.711Z,66
2017-03-21T09:18:52.497Z,66
2017-03-21T09:19:53.581Z,66
2017-03-21T09:20:54.374Z,66
2017-03-21T09:21:55.156Z,66
2017-03-21T09:22:55.939Z,66
2017-03-21T09:23:56.724Z,66
2017-03-21T09:24:57.809Z,66
2017-03-21T09:25:58.592Z,67
2017-03-21T09:26:59.373Z,65
2017-03-21T09:28:00.154Z,66
2017-03-21T09:29:00.941Z,65
2017-03-21T09:30:01.974Z,66
2017-03-21T09:31:02.756Z,65
2017-03-21T09:32:03.544Z,65
2017-03-21T09:33:04.327Z,66
2017-03-21T09:34:05.110Z,66
2017-03-21T09:35:06.139Z,66
2017-03-21T09:36:06.920Z,66
2017-03-21T09:37:07.703Z,66
2017-03-21T09:38:08.489Z,66
2017-03-21T09:39:09.268Z,67
2017-03-21T09:40:10.300Z,67
2017-03-21T09:41:11.081Z,67
2017-03-21T09:42:11.869Z,68
2017-03-21T09:43:12.650Z,68
2017-03-21T09:44:13.430Z,68
2017-03-21T09:45:14.466Z,68
2017-03-21T09:46:15.250Z,68
2017-03-21T09:47:16.030Z,68
2017-03-21T09:48:16.815Z,68
2017-03-21T09:49:17.594Z,68
2017-03-21T09:50:18.625Z,69
2017-03-21T09:51:19.407Z,68
2017-03-21T09:52:20.187Z,69
2017-03-21T09:53:20.969Z,69
2017-03-21T09:54:21.749Z,69
2017-03-21T09:55:22.784Z,69
2017-03-21T09:56:23.565Z,69
2017-03-21T09:57:24.351Z,69
2017-03-21T09:58:25.129Z,69
2017-03-21T09:59:25.912Z,68
2017-03-21T10:00:26.948Z,69
2017-03-21T10:01:27.728Z,69
2017-03-21T10:02:28.510Z,69
2017-03-21T10:03:29.291Z,69
2017-03-21T10:04:30.072Z,67
2017-03-21T10:05:31.154Z,67
2017-03-21T10:06:31.934Z,67
2017-03-21T10:07:32.721Z,68
2017-03-21T10:08:33.498Z,68
2017-03-21T10:09:34.278Z,68
2017-03-21T10:10:35.309Z,67
2017-03-21T10:11:36.090Z,67
2017-03-21T10:12:36.868Z,67
2017-03-21T10:13:37.647Z,67
2017-03-21T10:14:38.430Z,67
2017-03-21T10:15:39.460Z,66
2017-03-21T10:16:40.244Z,67
2017-03-21T10:17:41.019Z,67
2017-03-21T10:18:41.795Z,67
2017-03-21T10:19:42.579Z,67
2017-03-21T10:20:43.612Z,68
2017-03-21T10:21:44.390Z,67
2017-03-21T10:22:45.173Z,67
2017-03-21T10:23:45.951Z,66
2017-03-21T10:24:46.732Z,67
2017-03-21T10:25:47.754Z,67
2017-03-21T10:26:48.534Z,68
2017-03-21T10:27:49.310Z,67
2017-03-21T10:28:50.089Z,67
2017-03-21T10:29:50.867Z,67
2017-03-21T10:30:51.896Z,66
2017-03-21T10:31:52.691Z,67
2017-03-21T10:32:53.467Z,66
2017-03-21T10:33:54.246Z,66
2017-03-21T10:34:55.027Z,67
2017-03-21T10:35:56.052Z,67
2017-03-21T10:36:56.833Z,68
2017-03-21T10:37:57.606Z,67
2017-03-21T10:38:58.379Z,68
2017-03-21T10:39:59.159Z,66
2017-03-21T10:41:00.374Z,66
2017-03-21T10:42:01.155Z,68
2017-03-21T10:43:01.930Z,67
2017-03-21T10:44:02.711Z,67
2017-03-21T10:45:03.491Z,66
2017-03-21T10:46:04.517Z,66
2017-03-21T10:47:05.293Z,66
2017-03-21T10:48:06.073Z,67
2017-03-21T10:49:06.853Z,67
2017-03-21T10:50:07.633Z,66
2017-03-21T10:51:08.714Z,66
2017-03-21T10:52:09.492Z,66
2017-03-21T10:53:10.274Z,66
2017-03-21T10:54:11.053Z,66
2017-03-21T10:55:11.832Z,65
2017-03-21T10:56:12.866Z,66
2017-03-21T10:57:13.649Z,65
2017-03-21T10:58:14.427Z,65
2017-03-21T10:59:15.209Z,65
2017-03-21T11:00:15.989Z,63
2017-03-21T11:01:17.069Z,63
2017-03-21T11:02:17.848Z,62
2017-03-21T11:03:18.630Z,62
2017-03-21T11:04:19.408Z,63
2017-03-21T11:05:20.191Z,63
2017-03-21T11:06:21.225Z,64
2017-03-21T11:07:21.997Z,64
2017-03-21T11:08:22.774Z,63
2017-03-21T11:09:23.559Z,63
2017-03-21T11:10:24.339Z,62
2017-03-21T11:11:25.366Z,61
2017-03-21T11:12:26.145Z,62
2017-03-21T11:13:26.922Z,63
2017-03-21T11:14:27.706Z,64
2017-03-21T11:15:28.489Z,64
2017-03-21T11:16:29.522Z,64
2017-03-21T11:17:30.304Z,63
2017-03-21T11:18:31.087Z,63
2017-03-21T11:19:31.864Z,63
2017-03-21T11:20:32.649Z,62
2017-03-21T11:21:33.676Z,64
2017-03-21T11:22:34.456Z,63
2017-03-21T11:23:35.232Z,63
2017-03-21T11:24:36.013Z,64
2017-03-21T11:25:36.795Z,64
2017-03-21T11:26:37.869Z,64
2017-03-21T11:27:38.648Z,64
2017-03-21T11:28:39.428Z,64
2017-03-21T11:29:40.210Z,65
2017-03-21T11:30:40.987Z,65
2017-03-21T11:31:42.016Z,65
2017-03-21T11:32:42.790Z,66
2017-03-21T11:33:43.567Z,66
2017-03-21T11:34:44.347Z,65
2017-03-21T11:35:45.123Z,65
2017-03-21T11:36:46.150Z,66
2017-03-21T11:37:46.925Z,65
2017-03-21T11:38:47.703Z,65
2017-03-21T11:39:48.505Z,65
2017-03-21T11:40:49.266Z,65
2017-03-21T11:41:50.342Z,64
2017-03-21T11:42:51.125Z,64
2017-03-21T11:43:51.904Z,63
2017-03-21T11:44:52.685Z,63
2017-03-21T11:45:53.468Z,62
2017-03-21T11:46:54.499Z,62
2017-03-21T11:47:55.274Z,62
2017-03-21T11:48:56.056Z,61
2017-03-21T11:49:56.841Z,60
2017-03-21T11:50:57.623Z,60
2017-03-21T11:51:58.654Z,59
2017-03-21T11:52:59.440Z,57
2017-03-21T11:54:00.224Z,57
2017-03-21T11:55:01.008Z,55
2017-03-21T11:56:01.803Z,55
2017-03-21T11:57:02.829Z,54
2017-03-21T11:58:03.616Z,52
2017-03-21T11:59:04.407Z,51
2017-03-21T12:00:05.188Z,50
2017-03-21T12:01:05.980Z,49
2017-03-21T12:02:07.031Z,48
2017-03-21T12:03:07.805Z,48
2017-03-21T12:04:08.598Z,48
2017-03-21T12:05:09.383Z,47
2017-03-21T12:06:10.176Z,45
2017-03-21T12:07:11.210Z,45
2017-03-21T12:08:12.002Z,45
2017-03-21T12:09:12.794Z,45
2017-03-21T12:10:13.587Z,44
2017-03-21T12:11:14.379Z,44
2017-03-21T12:12:15.413Z,42
2017-03-21T12:13:16.209Z,41
2017-03-21T12:14:16.996Z,42
2017-03-21T12:15:17.971Z,42
2017-03-21T12:16:18.764Z,42
2017-03-21T12:17:19.804Z,43
2017-03-21T12:18:20.593Z,43
2017-03-21T12:19:21.384Z,43
2017-03-21T12:20:22.173Z,43
2017-03-21T12:21:22.963Z,43
2017-03-21T12:22:24.007Z,44
2017-03-21T12:23:24.799Z,44
2017-03-21T12:24:25.586Z,45
2017-03-21T12:25:26.374Z,46
2017-03-21T12:26:27.165Z,46
2017-03-21T12:27:28.201Z,46
2017-03-21T12:28:28.989Z,47
2017-03-21T12:29:29.774Z,47
2017-03-21T12:30:30.564Z,46
2017-03-21T12:31:31.350Z,46
2017-03-21T12:32:32.391Z,44
2017-03-21T12:33:33.179Z,45
2017-03-21T12:34:33.966Z,45
2017-03-21T12:35:34.756Z,46
2017-03-21T12:36:35.543Z,46
2017-03-21T12:37:36.582Z,47
2017-03-21T12:38:37.368Z,48
2017-03-21T12:39:38.154Z,49
2017-03-21T12:40:38.942Z,50
2017-03-21T12:41:39.729Z,50
2017-03-21T12:42:40.766Z,49
2017-03-21T12:43:41.553Z,48
2017-03-21T12:44:42.343Z,47
2017-03-21T12:45:43.131Z,47
2017-03-21T12:46:43.920Z,46
2017-03-21T12:47:44.961Z,45
2017-03-21T12:48:45.751Z,44
2017-03-21T12:49:46.540Z,44
2017-03-21T12:50:47.330Z,44
2017-03-21T12:51:48.117Z,43
2017-03-21T12:52:49.159Z,43
2017-03-21T12:53:49.950Z,43
2017-03-21T12:54:50.742Z,43
2017-03-21T12:55:51.535Z,42
2017-03-21T12:56:52.324Z,43
2017-03-21T12:57:53.360Z,42
2017-03-21T12:58:54.152Z,43
2017-03-21T12:59:54.940Z,44
2017-03-21T13:00:55.729Z,45
2017-03-21T13:01:56.514Z,45
2017-03-21T13:02:57.553Z,46
2017-03-21T13:03:58.337Z,46
2017-03-21T13:04:59.124Z,46
2017-03-21T13:05:59.913Z,46
2017-03-21T13:07:00.699Z,46
2017-03-21T13:08:01.737Z,44
2017-03-21T13:09:02.526Z,45
2017-03-21T13:10:03.311Z,45
2017-03-21T13:11:04.134Z,45
2017-03-21T13:12:04.886Z,44
2017-03-21T13:13:05.920Z,44
2017-03-21T13:14:06.708Z,43
2017-03-21T13:15:07.491Z,43
2017-03-21T13:16:08.278Z,43
2017-03-21T13:17:09.063Z,44
2017-03-21T13:18:10.152Z,44
2017-03-21T13:19:10.934Z,44
2017-03-21T13:20:11.719Z,43
2017-03-21T13:21:12.506Z,43
2017-03-21T13:22:13.292Z,44
2017-03-21T13:23:14.325Z,45
2017-03-21T13:24:15.115Z,44
2017-03-21T13:25:15.899Z,42
2017-03-21T13:26:16.688Z,41
2017-03-21T13:27:17.478Z,40
2017-03-21T13:28:18.518Z,39
2017-03-21T13:29:19.301Z,37
2017-03-21T13:30:20.091Z,36
2017-03-21T13:31:20.884Z,36
2017-03-21T13:32:21.668Z,35
2017-03-21T13:33:22.701Z,34
2017-03-21T13:34:23.485Z,33
2017-03-21T13:35:24.271Z,34
2017-03-21T13:36:25.060Z,33
2017-03-21T13:37:25.846Z,34
2017-03-21T13:38:26.885Z,33
2017-03-21T13:39:27.670Z,32
2017-03-21T13:40:28.456Z,31
2017-03-21T13:41:29.245Z,30
2017-03-21T13:42:30.035Z,30
2017-03-21T13:43:31.073Z,30
2017-03-21T13:44:31.857Z,30
2017-03-21T13:45:32.645Z,30
2017-03-21T13:46:33.435Z,29
2017-03-21T13:47:34.225Z,28
2017-03-21T13:48:35.268Z,28
2017-03-21T13:49:36.057Z,28
2017-03-21T13:50:36.846Z,28
2017-03-21T13:51:37.633Z,29
2017-03-21T13:52:38.422Z,29
2017-03-21T13:53:39.459Z,29
2017-03-21T13:54:40.249Z,30
2017-03-21T13:55:41.039Z,32
2017-03-21T13:56:41.826Z,31
2017-03-21T13:57:42.616Z,31
2017-03-21T13:58:43.651Z,31
2017-03-21T13:59:44.448Z,31
2017-03-21T14:00:45.224Z,30
2017-03-21T14:01:46.013Z,30
2017-03-21T14:02:46.840Z,31
2017-03-21T14:03:47.843Z,32
2017-03-21T14:04:48.629Z,31
2017-03-21T14:05:49.417Z,31
2017-03-21T14:06:50.205Z,31
2017-03-21T14:07:50.991Z,31
2017-03-21T14:08:52.031Z,31
2017-03-21T14:09:52.813Z,31
2017-03-21T14:10:53.599Z,32
2017-03-21T14:11:54.385Z,31
2017-03-21T14:12:55.170Z,31
2017-03-21T14:13:56.204Z,31
2017-03-21T14:14:56.988Z,30
2017-03-21T14:15:57.773Z,31
2017-03-21T14:16:58.557Z,32
2017-03-21T14:17:59.341Z,31
2017-03-21T14:19:00.378Z,32
2017-03-21T14:20:01.161Z,32
2017-03-21T14:21:01.947Z,32
2017-03-21T14:22:02.729Z,33
2017-03-21T14:23:03.517Z,33
2017-03-21T14:24:04.553Z,33
2017-03-21T14:25:05.336Z,33
2017-03-21T14:26:06.117Z,33
2017-03-21T14:27:06.904Z,33